Time;durP1;ratioP1;P1;durP2;ratioP2;P2;SDS_P1;SDS_P2;PMS_P1;PMS_P2;Temp;Humidity;BMP_temperature;BMP_pressure;BME280_temperature;BME280_humidity;BME280_pressure;Samples;Min_cycle;Max_cycle;Signal;HPM_P1;HPM_P2
2021/03/16 05:35:13;;;;;;;227.95;100.35;;;;;;;0.37;100.00;99857.78;11011895;77;22114;-84
2021/03/16 05:50:18;;;;;;;160.48;64.20;;;;;;;0.41;100.00;99864.02;10625506;82;99295;-83
2021/03/16 06:05:23;;;;;;;316.23;134.35;;;;;;;0.92;100.00;99871.61;10317265;84;99192;-88
2021/03/16 06:20:30;;;;;;;298.95;130.65;;;;;;;1.21;100.00;99901.48;10507600;83;99540;-90
2021/03/16 06:35:34;;;;;;;221.62;100.22;;;;;;;1.28;100.00;99915.74;10461318;83;99335;-94
2021/03/16 06:50:43;;;;;;;310.50;127.63;;;;;;;1.51;100.00;99938.66;10532828;83;99517;-91
2021/03/16 07:22:55;;;;;;;391.00;177.70;;;;;;;3.74;100.00;99967.16;10553159;82;99333;-79
2021/03/16 07:54:28;;;;;;;356.30;159.45;;;;;;;5.91;100.00;99984.86;10676176;82;99143;-81
2021/03/16 08:09:47;;;;;;;167.28;79.05;;;;;;;7.21;100.00;100004.62;10603056;82;99411;-86
2021/03/16 08:24:57;;;;;;;;;;;;;;;7.64;100.00;100020.80;10674699;81;99494;-86
2021/03/16 08:40:09;;;;;;;100.35;53.50;;;;;;;8.41;100.00;100016.81;10625294;82;85130;-83
2021/03/16 08:55:23;;;;;;;87.37;46.93;;;;;;;9.32;100.00;100028.77;10653174;82;99523;-87
2021/03/16 09:10:29;;;;;;;59.33;32.63;;;;;;;9.69;100.00;100010.28;10689682;82;99355;-88
2021/03/16 09:25:37;;;;;;;304.70;117.10;;;;;;;10.19;100.00;100036.85;10684110;81;99447;-86
2021/03/16 09:40:44;;;;;;;662.83;273.03;;;;;;;10.75;100.00;100050.53;10456312;84;99798;-86
2021/03/16 09:55:59;;;;;;;55.45;31.52;;;;;;;10.05;92.61;100060.39;9881911;88;100090;-88
2021/03/16 10:11:05;;;;;;;34.50;20.88;;;;;;;11.78;85.74;100061.48;10357286;83;99325;-89
2021/03/16 10:26:13;;;;;;;45.88;22.15;;;;;;;12.29;80.39;100074.98;10462225;83;99410;-89
2021/03/16 10:41:18;;;;;;;111.77;58.33;;;;;;;11.27;81.54;100083.38;10421597;85;99284;-87
2021/03/16 10:56:28;;;;;;;31.02;16.95;;;;;;;11.49;71.90;100087.44;10432807;84;99449;-87
2021/03/16 11:11:38;;;;;;;34.92;21.23;;;;;;;12.68;69.30;100082.50;10301635;85;99379;-87
2021/03/16 11:26:42;;;;;;;25.55;16.52;;;;;;;10.98;68.89;100088.27;10520665;82;99024;-84
2021/03/16 11:41:47;;;;;;;32.48;19.12;;;;;;;10.85;74.41;100089.05;10470042;84;99319;-86
2021/03/16 11:56:53;;;;;;;60.23;22.75;;;;;;;10.24;74.64;100077.91;10377129;82;100274;-87
2021/03/16 12:11:59;;;;;;;36.53;19.55;;;;;;;10.49;74.76;100069.52;10327672;85;99459;-88
2021/03/16 12:27:05;;;;;;;88.15;35.58;;;;;;;10.64;74.12;100062.52;10334525;85;99352;-84
2021/03/16 12:42:11;;;;;;;25.77;15.38;;;;;;;13.63;69.76;100054.02;10345093;85;99470;-80
2021/03/16 12:57:17;;;;;;;274.23;122.42;;;;;;;14.14;56.02;100055.27;10346105;85;99625;-81
2021/03/16 13:12:22;;;;;;;40.45;18.77;;;;;;;13.97;51.56;100080.28;10337997;85;99341;-80
2021/03/16 13:27:26;;;;;;;32.78;17.45;;;;;;;11.93;57.54;100115.67;10284861;85;99404;-81
2021/03/16 13:42:32;;;;;;;55.50;31.47;;;;;;;10.73;61.85;100117.23;10186985;86;99190;-82
2021/03/16 13:57:37;;;;;;;30.90;14.95;;;;;;;9.00;66.64;100117.41;10193514;85;99092;-82
2021/03/16 14:12:44;;;;;;;237.53;104.90;;;;;;;9.10;66.31;100113.03;10286906;85;98887;-81
2021/03/16 14:27:51;;;;;;;207.60;81.80;;;;;;;13.26;61.01;100097.33;10282577;85;99710;-82
2021/03/16 14:42:56;;;;;;;41.25;24.50;;;;;;;24.83;51.17;100113.93;10318233;86;99724;-81
2021/03/16 14:58:01;;;;;;;150.45;88.70;;;;;;;26.78;43.30;100112.75;10415440;84;99287;-79
2021/03/16 15:13:06;;;;;;;126.33;73.52;;;;;;;20.91;44.76;100116.60;10299684;84;99660;-80
2021/03/16 15:28:13;;;;;;;371.55;240.80;;;;;;;23.01;41.11;100130.24;10271541;85;99507;-81
2021/03/16 15:43:19;;;;;;;148.93;84.30;;;;;;;18.54;44.95;100134.17;10214710;86;99654;-83
2021/03/16 15:58:25;;;;;;;204.70;101.40;;;;;;;15.37;47.52;100136.15;10348832;85;99040;-83
2021/03/16 16:13:30;;;;;;;96.92;44.15;;;;;;;12.55;52.29;100146.07;10330485;85;99610;-79
2021/03/16 16:28:34;;;;;;;172.62;104.53;;;;;;;12.03;54.90;100166.42;10394100;85;99312;-80
2021/03/16 16:43:39;;;;;;;191.95;86.82;;;;;;;9.22;63.82;100192.31;10469874;85;99182;-79
2021/03/16 16:58:45;;;;;;;207.90;90.10;;;;;;;7.88;74.11;100203.92;10479829;84;98764;-79
2021/03/16 17:13:52;;;;;;;324.82;130.57;;;;;;;7.79;74.55;100223.73;10476745;85;99125;-82
2021/03/16 17:28:56;;;;;;;201.95;90.55;;;;;;;7.11;86.35;100241.92;10472983;84;99239;-82
2021/03/16 17:44:01;;;;;;;107.97;49.50;;;;;;;7.15;85.63;100252.48;10476302;85;99003;-81
2021/03/16 17:59:15;;;;;;;171.17;66.77;;;;;;;7.26;82.26;100269.95;10471299;85;98727;-84
2021/03/16 18:14:19;;;;;;;367.07;119.08;;;;;;;6.99;82.06;100288.00;10472331;83;98560;-81
2021/03/16 18:29:24;;;;;;;321.02;120.30;;;;;;;6.42;83.27;100288.14;10431406;84;98842;-80
2021/03/16 18:44:30;;;;;;;297.97;116.13;;;;;;;5.89;85.81;100301.80;10378115;85;98825;-85
2021/03/16 18:59:37;;;;;;;304.82;122.98;;;;;;;5.39;87.59;100308.98;10378933;84;99120;-86
2021/03/16 19:14:42;;;;;;;223.97;88.17;;;;;;;4.91;89.10;100313.83;10386715;85;99167;-86
2021/03/16 19:29:48;;;;;;;303.88;108.35;;;;;;;4.57;89.80;100313.38;10406479;85;99139;-86
2021/03/16 19:44:54;;;;;;;441.57;165.90;;;;;;;4.20;91.17;100320.81;10476721;84;99690;-80
2021/03/16 19:59:59;;;;;;;213.13;82.93;;;;;;;3.88;93.38;100319.70;10476801;85;99304;-80
2021/03/16 20:15:09;;;;;;;244.60;93.45;;;;;;;3.81;95.09;100331.77;10470101;85;98994;-80
2021/03/16 20:30:14;;;;;;;;;;;;;;;3.60;95.78;100345.53;10419341;84;99303;-85
2021/03/16 20:45:21;;;;;;;300.43;96.32;;;;;;;3.28;96.84;100343.47;9976774;87;84285;-88
2021/03/16 21:00:26;;;;;;;272.17;77.50;;;;;;;3.04;97.66;100352.17;10070639;86;99274;-87
2021/03/16 21:15:34;;;;;;;266.73;86.75;;;;;;;2.92;99.51;100368.77;10307077;86;99153;-88
2021/03/16 21:30:39;;;;;;;169.93;61.28;;;;;;;2.76;100.00;100376.54;10361850;84;99633;-87
2021/03/16 21:45:43;;;;;;;187.80;70.00;;;;;;;2.47;100.00;100387.98;10479671;85;99440;-88
2021/03/16 22:00:48;;;;;;;311.07;106.83;;;;;;;2.24;100.00;100400.00;10582559;84;99284;-89
2021/03/16 22:15:53;;;;;;;161.70;56.68;;;;;;;2.04;100.00;100406.20;10366049;85;99394;-87
2021/03/16 22:30:58;;;;;;;152.55;51.55;;;;;;;1.89;100.00;100416.84;10596117;83;99342;-87
2021/03/16 22:46:03;;;;;;;105.60;42.88;;;;;;;1.91;100.00;100421.49;10421893;84;99387;-87
2021/03/16 23:01:10;;;;;;;97.10;37.67;;;;;;;1.59;100.00;100436.38;10412201;85;99189;-86
2021/03/16 23:16:14;;;;;;;65.28;25.97;;;;;;;2.01;100.00;100444.71;10604425;83;98662;-86
2021/03/16 23:31:19;;;;;;;57.95;21.33;;;;;;;2.01;100.00;100444.71;10602451;83;99145;-87
2021/03/16 23:46:24;;;;;;;66.82;24.72;;;;;;;2.15;100.00;100446.16;10607740;83;99186;-86
